Stormwatcher's Retreat Logo




                  Temp     Hi    Low   Out    Dew  Wind  Wind   Wind    Hi    Hi   Wind   Heat    THW   THSW                Rain  Solar   Solar Hi Solar   UV    UV    Hi     Heat    Cool    In     In    In     In     In   In Air          Wind  Wind    ISS   Arc.
  Date    Time     Out   Temp   Temp   Hum    Pt. Speed   Dir    Run Speed   Dir  Chill  Index  Index  Index   Bar    Rain  Rate   Rad.  Energy    Rad.  Index  Dose   UV     D-D     D-D    Temp   Hum    Dew   Heat    EMC Density     ET   Samp   Tx   Recept  Int.
------------------------------------------------------------------------------------------------------------------------------------------------------------------------------------------------------------------------------------------------------------------------
 3/23/19 12:10a   50.3   50.5   50.3    86   46.3   3.0   SSW   0.50   7.0   SSE   50.0   50.4   50.1   46.8  30.114  0.01  0.13     0     0.00      0     0.0  0.00   0.0   0.102   0.000   68.8    45   46.6   66.9   8.47  .0748    0.000   211    5    100.0   10 
 3/23/19 12:20a   50.4   50.4   50.0    87   46.7   4.0   SSW   0.67   8.0   SSW   49.3   50.5   49.4   46.1  30.116  0.00  0.04     0     0.00      0     0.0  0.00   0.0   0.101   0.000   68.8    45   46.6   66.9   8.47  .0748    0.000   211    5    100.0   10 
 3/23/19 12:30a   50.7   50.7   50.4    87   47.0   5.0   SSW   0.83   9.0   SSE   49.0   50.8   49.1   45.8  30.117  0.00  0.00     0     0.00      0     0.0  0.00   0.0   0.099   0.000   68.7    45   46.5   66.8   8.48  .0748    0.000   212    5    100.0   10 
 3/23/19 12:40a   50.4   50.7   50.4    86   46.4   4.0     S   0.67   8.0    SW   49.3   50.5   49.4   46.1  30.115  0.00  0.00     0     0.00      0     0.0  0.00   0.0   0.101   0.000   68.7    45   46.5   66.8   8.48  .0748    0.000   210    5    100.0   10 
 3/23/19 12:50a   50.6   50.6   50.4    87   46.9   5.0   SSW   0.83  12.0     S   48.9   50.7   49.0   45.7  30.118  0.00  0.00     0     0.00      0     0.0  0.00   0.0   0.100   0.000   68.6    45   46.4   66.7   8.48  .0748    0.000   213    5    100.0   10 
 3/23/19  1:00a   50.5   50.6   50.4    86   46.5   5.0   SSW   0.83  13.0   SSW   48.8   50.6   48.9   45.6  30.115  0.00  0.00     0     0.00      0     0.0  0.00   0.0   0.101   0.000   68.6    45   46.4   66.7   8.48  .0748    0.001   212    5    100.0   10 
 3/23/19  1:10a   50.2   50.5   50.0    86   46.2   5.0     S   0.83  12.0   SSW   48.4   50.3   48.5   45.2  30.119  0.00  0.00     0     0.00      0     0.0  0.00   0.0   0.103   0.000   68.6    45   46.4   66.7   8.48  .0748    0.000   212    5    100.0   10 
 3/23/19  1:20a   50.1   50.2   49.9    86   46.1   6.0     S   1.00  16.0   SSW   47.8   50.2   47.9   44.6  30.119  0.01  0.00     0     0.00      0     0.0  0.00   0.0   0.103   0.000   68.6    45   46.4   66.7   8.48  .0748    0.000   213    5    100.0   10 
 3/23/19  1:30a   50.1   50.1   49.8    86   46.1   4.0     S   0.67  10.0   SSE   49.0   50.2   49.1   45.8  30.118  0.00  0.00     0     0.00      0     0.0  0.00   0.0   0.103   0.000   68.5    45   46.3   66.6   8.48  .0748    0.000   210    5    100.0   10 
 3/23/19  1:40a   49.6   50.1   49.6    85   45.3   5.0     S   0.83  11.0    SE   47.7   49.7   47.8   44.5  30.117  0.00  0.00     0     0.00      0     0.0  0.00   0.0   0.107   0.000   68.5    45   46.3   66.6   8.48  .0748    0.000   211    5    100.0   10 
 3/23/19  1:50a   49.7   49.7   49.5    85   45.4   4.0   SSW   0.67   8.0     S   48.5   49.8   48.6   45.3  30.118  0.00  0.00     0     0.00      0     0.0  0.00   0.0   0.106   0.000   68.4    45   46.2   66.6   8.48  .0749    0.000   213    5    100.0   10 
 3/23/19  2:00a   49.9   49.9   49.7    85   45.6   3.0   SSW   0.50   8.0   SSE   49.6   50.0   49.7   46.4  30.118  0.00  0.00     0     0.00      0     0.0  0.00   0.0   0.105   0.000   68.4    45   46.2   66.6   8.48  .0749    0.001   213    5    100.0   10 
 3/23/19  2:10a   49.7   49.9   49.7    85   45.4   3.0   SSW   0.50   6.0   SSW   49.3   49.8   49.4   46.1  30.119  0.00  0.00     0     0.00      0     0.0  0.00   0.0   0.106   0.000   68.3    45   46.1   66.5   8.48  .0749    0.000   211    5    100.0   10 
 3/23/19  2:20a   49.5   49.7   49.5    85   45.2   3.0     S   0.50   8.0   SSW   49.1   49.6   49.2   45.9  30.118  0.00  0.00     0     0.00      0     0.0  0.00   0.0   0.108   0.000   68.2    45   46.0   66.4   8.49  .0749    0.000   212    5    100.0   10 
 3/23/19  2:30a   49.4   49.6   49.4    85   45.1   4.0     S   0.67   8.0   SSW   48.2   49.5   48.3   45.0  30.119  0.00  0.00     0     0.00      0     0.0  0.00   0.0   0.108   0.000   68.2    45   46.0   66.4   8.49  .0749    0.000   212    5    100.0   10 
 3/23/19  2:40a   49.4   49.5   49.4    85   45.1   3.0     S   0.50   6.0     S   49.0   49.5   49.1   45.8  30.118  0.00  0.00     0     0.00      0     0.0  0.00   0.0   0.108   0.000   68.2    45   46.0   66.4   8.49  .0749    0.000   213    5    100.0   10 
 3/23/19  2:50a   49.5   49.5   49.3    86   45.5   3.0     S   0.50   6.0   SSE   49.1   49.6   49.2   45.9  30.126  0.01  0.00     0     0.00      0     0.0  0.00   0.0   0.108   0.000   68.1    45   45.9   66.3   8.49  .0749    0.000   212    5    100.0   10 
 3/23/19  3:00a   48.8   49.4   48.8    85   44.5   5.0     S   0.83  11.0     S   46.8   48.9   46.9   43.6  30.125  0.01  0.15     0     0.00      0     0.0  0.00   0.0   0.113   0.000   68.1    45   45.9   66.3   8.49  .0749    0.001   213    5    100.0   10 
 3/23/19  3:10a   49.0   49.0   48.8    85   44.7   3.0     S   0.50   7.0   SSW   48.5   49.1   48.6   45.3  30.127  0.01  0.08     0     0.00      0     0.0  0.00   0.0   0.111   0.000   68.1    45   45.9   66.3   8.49  .0749    0.000   213    5    100.0   10 
 3/23/19  3:20a   48.8   48.9   48.6    86   44.8   4.0     S   0.67   9.0     S   47.5   48.9   47.6   44.3  30.124  0.03  0.16     0     0.00      0     0.0  0.00   0.0   0.113   0.000   68.0    45   45.9   66.2   8.49  .0749    0.000   213    5    100.0   10 
 3/23/19  3:30a   48.8   48.9   48.7    85   44.5   2.0   SSW   0.33   5.0     S   48.8   48.9   48.9   45.6  30.122  0.00  0.05     0     0.00      0     0.0  0.00   0.0   0.113   0.000   68.0    45   45.9   66.2   8.49  .0749    0.000   211    5    100.0   10 
 3/23/19  3:40a   48.7   49.0   48.7    85   44.4   3.0     S   0.50   6.0   SSE   48.2   48.8   48.3   45.0  30.126  0.00  0.00     0     0.00      0     0.0  0.00   0.0   0.113   0.000   67.9    45   45.8   66.1   8.49  .0750    0.000   210    5    100.0   10 
 3/23/19  3:50a   48.4   48.7   48.3    86   44.4   3.0     S   0.50   7.0     S   47.8   48.5   47.9   44.6  30.126  0.00  0.00     0     0.00      0     0.0  0.00   0.0   0.115   0.000   67.9    45   45.8   66.1   8.49  .0750    0.000   211    5    100.0   10 
 3/23/19  4:00a   49.1   49.1   48.5    86   45.1   4.0   SSW   0.67   8.0     S   47.8   49.2   47.9   44.6  30.124  0.01  0.00     0     0.00      0     0.0  0.00   0.0   0.110   0.000   67.9    45   45.8   66.1   8.49  .0750    0.001   212    5    100.0   10 
 3/23/19  4:10a   49.0   49.2   49.0    85   44.7   5.0     S   0.83  13.0     S   47.0   49.1   47.1   43.8  30.126  0.01  0.04     0     0.00      0     0.0  0.00   0.0   0.111   0.000   67.8    45   45.7   66.0   8.49  .0750    0.000   210    5    100.0   10 
 3/23/19  4:20a   49.0   49.0   48.9    86   45.0   4.0     S   0.67   9.0   SSE   47.7   49.1   47.8   44.5  30.124  0.00  0.04     0     0.00      0     0.0  0.00   0.0   0.111   0.000   67.8    45   45.7   66.0   8.49  .0750    0.000   213    5    100.0   10 
 3/23/19  4:30a   48.6   49.0   48.6    85   44.3   3.0     S   0.50   6.0     S   48.1   48.7   48.2   44.9  30.126  0.00  0.00     0     0.00      0     0.0  0.00   0.0   0.114   0.000   67.7    45   45.6   65.9   8.50  .0750    0.000   211    5    100.0   10 
 3/23/19  4:40a   48.3   48.6   48.2    85   44.0   2.0     S   0.33   5.0   SSE   48.3   48.3   48.3   44.9  30.123  0.00  0.00     0     0.00      0     0.0  0.00   0.0   0.116   0.000   67.7    45   45.6   65.9   8.50  .0750    0.000   210    5    100.0   10 
 3/23/19  4:50a   48.1   48.5   48.1    85   43.8   3.0   SSW   0.50   5.0   SSW   47.5   48.1   47.5   44.1  30.124  0.00  0.00     0     0.00      0     0.0  0.00   0.0   0.117   0.000   67.6    45   45.5   65.8   8.50  .0750    0.000   213    5    100.0   10 
 3/23/19  5:00a   47.5   48.1   47.5    85   43.2   3.0     S   0.50   7.0     S   46.8   47.5   46.8   43.4  30.127  0.00  0.00     0     0.00      0     0.0  0.00   0.0   0.122   0.000   67.6    45   45.5   65.8   8.50  .0750    0.001   211    5    100.0   10 
 3/23/19  5:10a   47.4   47.7   47.4    85   43.1   3.0     S   0.50   6.0   SSW   46.7   47.4   46.7   43.3  30.130  0.00  0.00     0     0.00      0     0.0  0.00   0.0   0.122   0.000   67.5    45   45.4   65.6   8.50  .0750    0.000   211    5    100.0   10 
 3/23/19  5:20a   47.2   47.4   47.2    85   42.9   3.0   SSW   0.50   7.0     S   46.5   47.2   46.5   43.1  30.130  0.00  0.00     0     0.00      0     0.0  0.00   0.0   0.124   0.000   67.5    45   45.4   65.6   8.50  .0750    0.000   213    5    100.0   10 
 3/23/19  5:30a   47.2   47.3   47.2    85   42.9   3.0     S   0.50   8.0   ESE   46.5   47.2   46.5   43.1  30.132  0.00  0.00     0     0.00      0     0.0  0.00   0.0   0.124   0.000   67.4    45   45.3   65.5   8.50  .0751    0.000   213    5    100.0   10 
 3/23/19  5:40a   47.2   47.4   47.2    85   42.9   2.0   SSW   0.33   7.0    SE   47.2   47.2   47.2   43.8  30.135  0.00  0.00     0     0.00      0     0.0  0.00   0.0   0.124   0.000   67.4    45   45.3   65.5   8.50  .0751    0.000   213    5    100.0   10 
 3/23/19  5:50a   47.1   47.2   47.0    85   42.8   2.0     S   0.33   6.0   SSE   47.1   47.1   47.1   43.7  30.138  0.00  0.00     0     0.00      0     0.0  0.00   0.0   0.124   0.000   67.4    45   45.3   65.5   8.50  .0751    0.000   214    5    100.0   10 
 3/23/19  6:00a   47.1   47.1   47.1    85   42.8   2.0   SSW   0.33   5.0   SSW   47.1   47.1   47.1   43.7  30.141  0.00  0.00     0     0.00      0     0.0  0.00   0.0   0.124   0.000   67.3    45   45.2   65.4   8.50  .0751    0.001   213    5    100.0   10 
 3/23/19  6:10a   46.9   47.1   46.9    85   42.6   2.0     E   0.33   5.0   ESE   46.9   46.9   46.9   43.5  30.145  0.00  0.00     0     0.00      0     0.0  0.00   0.0   0.126   0.000   67.3    45   45.2   65.4   8.50  .0751    0.000   211    5    100.0   10 
 3/23/19  6:20a   46.7   46.9   46.7    85   42.4   2.0   ESE   0.33   8.0   SSE   46.7   46.7   46.7   43.3  30.144  0.00  0.00     0     0.00      0     0.0  0.00   0.0   0.127   0.000   67.2    45   45.1   65.3   8.51  .0751    0.000   214    5    100.0   10 
 3/23/19  6:30a   46.7   46.7   46.7    85   42.4   2.0     E   0.33   9.0    SE   46.7   46.7   46.7   43.3  30.146  0.00  0.00     0     0.00      0     0.0  0.00   0.0   0.127   0.000   67.2    45   45.1   65.3   8.51  .0751    0.000   211    5    100.0   10 
 3/23/19  6:40a   46.5   46.7   46.5    85   42.2   3.0   ESE   0.50   8.0     E   45.8   46.5   45.8   42.4  30.146  0.00  0.00     0     0.00      0     0.0  0.00   0.0   0.128   0.000   67.1    45   45.0   65.2   8.51  .0751    0.000   213    5    100.0   10 
 3/23/19  6:50a   46.4   46.5   46.4    85   42.1   3.0   ESE   0.50   7.0   ESE   45.6   46.4   45.6   42.2  30.149  0.00  0.00     0     0.00      0     0.0  0.00   0.0   0.129   0.000   67.1    45   45.0   65.2   8.51  .0752    0.000   213    5    100.0   10 
 3/23/19  7:00a   46.3   46.4   46.3    85   42.0   2.0   ESE   0.33   7.0   ESE   46.3   46.3   46.3   42.9  30.153  0.00  0.00     0     0.00      0     0.0  0.00   0.0   0.130   0.000   67.2    45   45.1   65.3   8.51  .0751    0.000   210    5    100.0   10 
 3/23/19  7:10a   46.4   46.4   46.3    85   42.1   1.0    SE   0.17   5.0    SE   46.4   46.4   46.4   43.0  30.152  0.00  0.00     0     0.00      0     0.0  0.00   0.0   0.129   0.000   67.4    45   45.3   65.5   8.50  .0751    0.000   211    5    100.0   10 
 3/23/19  7:20a   46.7   46.7   46.4    85   42.4   1.0     S   0.17   5.0     S   46.7   46.7   46.7   43.3  30.153  0.00  0.00     3     0.04      7     0.0  0.00   0.0   0.127   0.000   67.4    45   45.3   65.5   8.50  .0751    0.000   211    5    100.0   10 
 3/23/19  7:30a   46.9   47.0   46.7    85   42.6   1.0    SE   0.17   4.0   SSE   46.9   46.9   46.9   43.7  30.154  0.00  0.00    13     0.19     19     0.0  0.00   0.0   0.126   0.000   67.4    45   45.3   65.5   8.50  .0751    0.000   213    5    100.0   10 
 3/23/19  7:40a   46.9   47.0   46.9    85   42.6   2.0     S   0.33   4.0   SSW   46.9   46.9   46.9   44.0  30.154  0.00  0.00    27     0.39     35     0.0  0.00   0.0   0.126   0.000   67.4    45   45.3   65.5   8.50  .0751    0.000   213    5    100.0   10 
 3/23/19  7:50a   47.2   47.2   47.0    85   42.9   1.0     E   0.17   4.0   SSE   47.2   47.2   47.2   44.7  30.154  0.00  0.00    42     0.60     49     0.0  0.00   0.0   0.124   0.000   67.5    45   45.4   65.6   8.50  .0751    0.000   211    5    100.0   10 
 3/23/19  8:00a   47.3   47.3   47.2    85   43.0   2.0   ESE   0.33   7.0    SE   47.3   47.3   47.3   45.2  30.155  0.00  0.00    59     0.85     63     0.0  0.00   0.0   0.123   0.000   67.5    45   45.4   65.6   8.50  .0751    0.001   212    5    100.0   10 
 3/23/19  8:10a   47.3   47.3   47.3    85   43.0   2.0     E   0.33   7.0   ESE   47.3   47.3   47.3   45.5  30.156  0.00  0.00    74     1.06     84     0.0  0.00   0.0   0.123   0.000   67.4    45   45.3   65.5   8.50  .0751    0.000   212    5    100.0   10 
 3/23/19  8:20a   47.5   47.5   47.3    85   43.2   1.0   ESE   0.17   6.0     E   47.5   47.5   47.5   46.3  30.161  0.00  0.00   101     1.45    120     0.0  0.00   0.0   0.122   0.000   67.5    45   45.4   65.6   8.50  .0751    0.000   212    5    100.0   10 
 3/23/19  8:30a   47.9   47.9   47.5    85   43.6   1.0   ESE   0.17   4.0    SE   47.9   47.9   47.9   47.5  30.162  0.00  0.00   139     1.99    148     0.0  0.00   0.0   0.119   0.000   67.5    45   45.4   65.6   8.50  .0751    0.000   212    5    100.0   10 
 3/23/19  8:40a   48.0   48.0   47.8    85   43.7   1.0   ESE   0.17   4.0   ESE   48.0   48.0   48.0   50.8  30.166  0.00  0.00   138     1.98    144     0.0  0.00   0.0   0.118   0.000   67.5    45   45.4   65.6   8.50  .0751    0.000   214    5    100.0   10 
 3/23/19  8:50a   48.2   48.2   48.0    85   43.9   1.0   ESE   0.17   3.0    SW   48.2   48.2   48.2   51.5  30.167  0.00  0.00   139     1.99    144     0.0  0.00   0.0   0.117   0.000   67.5    45   45.4   65.6   8.50  .0751    0.000   211    5    100.0   10 
 3/23/19  9:00a   48.3   48.3   48.2    85   44.0   1.0   SSW   0.17   3.0   SSW   48.3   48.3   48.3   52.1  30.170  0.00  0.00   151     2.16    158     0.0  0.00   0.0   0.116   0.000   67.5    45   45.4   65.6   8.50  .0751    0.002   211    5    100.0   10 
 3/23/19  9:10a   48.6   48.6   48.4    85   44.3   1.0   ESE   0.17   4.0     S   48.6   48.7   48.7   53.2  30.173  0.00  0.00   169     2.42    174     0.0  0.00   0.0   0.114   0.000   67.5    45   45.4   65.6   8.50  .0751    0.000   211    5    100.0   10 
 3/23/19  9:20a   48.8   48.8   48.6    85   44.5   1.0   ESE   0.17   4.0     S   48.8   48.9   48.9   53.7  30.176  0.00  0.00   178     2.55    185     0.0  0.00   0.0   0.113   0.000   67.6    45   45.5   65.8   8.50  .0751    0.000   212    5    100.0   10 
 3/23/19  9:30a   49.3   49.3   48.8    84   44.7   2.0    SE   0.33   6.0   ESE   49.3   49.4   49.4   54.9  30.177  0.00  0.00   199     2.85    206     0.0  0.00   0.0   0.109   0.000   67.6    45   45.5   65.8   8.50  .0751    0.000   213    5    100.0   10 
 3/23/19  9:40a   49.4   49.5   49.3    84   44.8   1.0   SSW   0.17   4.0   SSE   49.4   49.5   49.5   55.2  30.178  0.00  0.00   211     3.02    216     0.0  0.00   0.0   0.108   0.000   67.6    45   45.5   65.8   8.50  .0751    0.000   214    5    100.0   10 
 3/23/19  9:50a   49.7   49.7   49.4    84   45.1   1.0     S   0.17   3.0     S   49.7   49.8   49.8   55.5  30.180  0.00  0.00   213     3.05    237     0.0  0.00   0.0   0.106   0.000   67.6    45   45.5   65.8   8.50  .0751    0.000   211    5    100.0   10 
 3/23/19 10:00a   50.1   50.1   49.7    84   45.5   2.0     S   0.33   5.0     S   50.1   50.2   50.2   58.1  30.179  0.00  0.00   306     4.39    353     0.0  0.00   0.0   0.103   0.000   67.7    45   45.6   65.9   8.50  .0751    0.004   213    5    100.0   10 
 3/23/19 10:10a   50.8   50.9   50.1    84   46.1   2.0    SE   0.33   5.0   SSW   50.8   50.8   50.8   60.6  30.182  0.00  0.00   413     5.92    468     0.0  0.00   0.0   0.099   0.000   67.7    45   45.6   65.9   8.50  .0751    0.000   212    5    100.0   10 
 3/23/19 10:20a   51.5   51.5   50.9    84   46.8   2.0   SSW   0.33   5.0   SSE   51.5   51.5   51.5   62.4  30.183  0.00  0.00   466     6.68    506     0.0  0.00   0.0   0.094   0.000   67.8    45   45.7   66.0   8.49  .0751    0.000   211    5    100.0   10 
 3/23/19 10:30a   51.8   51.9   51.5    83   46.8   2.0   SSW   0.33   6.0   SSW   51.8   51.7   51.7   60.8  30.185  0.00  0.00   410     5.88    494     0.0  0.00   0.0   0.092   0.000   67.8    45   45.7   66.0   8.49  .0751    0.000   212    5    100.0   10 
 3/23/19 10:40a   51.5   51.8   51.5    82   46.2   6.0   SSW   1.00  12.0   SSW   49.5   51.4   49.4   60.5  30.185  0.00  0.00   507     7.27    577     0.0  0.00   0.0   0.094   0.000   67.9    45   45.8   66.1   8.49  .0751    0.000   213    5    100.0   10 
 3/23/19 10:50a   51.2   51.5   51.2    83   46.2   9.0   SSW   1.50  13.0   SSW   47.3   51.2   47.3   55.2  30.186  0.00  0.00   377     5.40    592     0.0  0.00   0.0   0.096   0.000   67.9    45   45.8   66.1   8.49  .0751    0.000   212    5    100.0   10 
 3/23/19 11:00a   51.2   51.2   51.1    83   46.2   9.0   SSW   1.50  13.0   SSW   47.3   51.2   47.3   57.9  30.187  0.00  0.00   562     8.06    599     0.0  0.00   0.0   0.096   0.000   68.0    45   45.9   66.2   8.49  .0751    0.009   212    5    100.0   10 
 3/23/19 11:10a   51.4   51.4   51.2    83   46.4   8.0   SSW   1.33  12.0   SSW   48.2   51.3   48.1   58.3  30.192  0.00  0.00   546     7.83    584     0.0  0.00   0.0   0.094   0.000   68.0    45   45.9   66.2   8.49  .0751    0.000   212    5    100.0   10 
 3/23/19 11:20a   51.6   51.6   51.4    83   46.6   8.0   SSW   1.33  13.0     S   48.4   51.5   48.3   58.7  30.196  0.00  0.00   568     8.14    605     0.0  0.00   0.0   0.093   0.000   68.1    45   45.9   66.3   8.49  .0751    0.000   210    5    100.0   10 
 3/23/19 11:30a   51.4   51.6   51.4    83   46.4  10.0   SSW   1.67  13.0   SSE   46.9   51.3   46.8   57.1  30.201  0.00  0.00   611     8.76    631     0.0  0.00   0.0   0.094   0.000   68.1    45   45.9   66.3   8.49  .0751    0.000   211    5    100.0   10 
 3/23/19 11:40a   51.4   51.5   51.4    83   46.4  10.0   SSW   1.67  13.0   SSW   46.9   51.3   46.8   57.1  30.203  0.00  0.00   624     8.95    663     0.0  0.00   0.0   0.094   0.000   68.2    45   46.0   66.4   8.49  .0751    0.000   213    5    100.0   10 
 3/23/19 11:50a   51.4   51.5   51.4    84   46.7  10.0   SSW   1.67  15.0     S   46.9   51.4   46.9   57.5  30.207  0.00  0.00   650     9.32    680     0.0  0.00   0.0   0.094   0.000   68.2    45   46.0   66.4   8.49  .0751    0.000   211    5    100.0   10 
 3/23/19 12:00p   51.4   51.4   51.3    84   46.7  10.0   SSW   1.67  14.0     S   46.9   51.4   46.9   57.3  30.210  0.00  0.00   653     9.36    691     0.0  0.00   0.0   0.094   0.000   68.3    45   46.1   66.5   8.48  .0751    0.012   212    5    100.0   10 
 3/23/19 12:10p   51.5   51.5   51.4    84   46.8   9.0   SSW   1.50  13.0     S   47.7   51.5   47.7   58.9  30.212  0.00  0.00   683     9.79    696     0.0  0.00   0.0   0.094   0.000   68.4    45   46.2   66.6   8.48  .0751    0.000   212    5    100.0   10 
 3/23/19 12:20p   51.6   51.6   51.4    84   46.9   9.0   SSW   1.50  15.0   SSE   47.8   51.6   47.8   59.6  30.213  0.00  0.00   716    10.26    728     0.0  0.00   0.0   0.093   0.000   68.4    45   46.2   66.6   8.48  .0751    0.000   211    5    100.0   10 
 3/23/19 12:30p   51.6   51.6   51.5    84   46.9   9.0   SSW   1.50  12.0     S   47.8   51.6   47.8   59.3  30.213  0.00  0.00   708    10.15    719     0.0  0.00   0.0   0.093   0.000   68.5    45   46.3   66.6   8.48  .0751    0.000   212    5    100.0   10 
 3/23/19 12:40p   51.7   51.8   51.6    84   47.0   9.0   SSW   1.50  13.0   SSE   47.9   51.7   47.9   59.6  30.213  0.00  0.00   721    10.34    731     0.0  0.00   0.0   0.092   0.000   68.5    46   46.9   66.8   8.65  .0751    0.000   214    5    100.0   10 
 3/23/19 12:50p   51.8   51.8   51.6    84   47.1   9.0   SSW   1.50  13.0     S   48.0   51.8   48.0   60.1  30.215  0.00  0.00   749    10.74    772     0.0  0.00   0.0   0.092   0.000   68.6    46   47.0   66.8   8.65  .0750    0.000   211    5    100.0   10 
 3/23/19  1:00p   52.1   52.1   51.8    84   47.4   9.0   SSW   1.50  13.0   SSE   48.3   52.0   48.2   58.2  30.215  0.00  0.00   642     9.20    795     0.0  0.00   0.0   0.090   0.000   68.7    46   47.1   66.9   8.65  .0750    0.014   213    5    100.0   10 
 3/23/19  1:10p   52.1   52.2   52.0    84   47.4   9.0   SSW   1.50  14.0   SSE   48.3   52.0   48.2   61.1  30.215  0.00  0.00   786    11.27    844     0.0  0.00   0.0   0.090   0.000   68.8    46   47.2   67.0   8.65  .0750    0.000   211    5    100.0   10 
 3/23/19  1:20p   51.7   52.2   51.7    84   47.0   9.0    SW   1.50  14.0   SSE   47.9   51.7   47.9   56.9  30.215  0.00  0.00   508     7.28    958     0.0  0.00   0.0   0.092   0.000   68.9    46   47.3   67.1   8.65  .0750    0.000   213    5    100.0   10 
 3/23/19  1:30p   51.5   51.8   51.5    84   46.8   9.0    SW   1.50  14.0   SSE   47.7   51.5   47.7   56.9  30.218  0.00  0.00   549     7.87    802     0.0  0.00   0.0   0.094   0.000   69.0    46   47.4   67.2   8.65  .0750    0.000   212    5    100.0   10 
 3/23/19  1:40p   51.8   51.8   51.2    85   47.4   8.0   SSW   1.33  12.0     S   48.7   51.8   48.7   62.9  30.222  0.00  0.00   811    11.63    833     0.0  0.00   0.0   0.092   0.000   69.0    46   47.4   67.2   8.65  .0750    0.000   210    5    100.0   10 
 3/23/19  1:50p   52.0   52.1   51.8    84   47.3   8.0    SW   1.33  13.0    SW   48.9   52.0   48.9   62.1  30.222  0.00  0.00   755    10.82    763     0.0  0.00   0.0   0.090   0.000   69.1    46   47.4   67.3   8.65  .0750    0.000   211    5    100.0   10 
 3/23/19  2:00p   52.1   52.1   51.8    83   47.1   9.0    SW   1.50  13.0   WSW   48.3   52.0   48.2   60.9  30.222  0.00  0.00   746    10.69    751     0.0  0.00   0.0   0.090   0.000   69.2    46   47.5   67.3   8.65  .0750    0.014   210    5    100.0   10 
 3/23/19  2:10p   52.2   52.2   51.8    83   47.2   9.0    SW   1.50  13.0   WSW   48.4   52.1   48.3   61.1  30.223  0.00  0.00   741    10.62    744     0.0  0.00   0.0   0.089   0.000   69.3    46   47.6   67.4   8.65  .0749    0.000   212    5    100.0   10 
 3/23/19  2:20p   52.0   52.2   52.0    82   46.7   9.0    SW   1.50  12.0   WSW   48.2   51.9   48.1   61.0  30.223  0.00  0.00   734    10.52    737     0.0  0.00   0.0   0.090   0.000   69.4    46   47.7   67.5   8.65  .0749    0.000   210    5    100.0   10 
 3/23/19  2:30p   52.1   52.1   51.9    82   46.8   9.0    SW   1.50  12.0   WSW   48.3   52.0   48.2   61.2  30.224  0.00  0.00   726    10.41    729     0.0  0.00   0.0   0.090   0.000   69.5    46   47.8   67.6   8.65  .0749    0.000   212    5    100.0   10 
 3/23/19  2:40p   51.9   52.1   51.8    81   46.3   9.0    SW   1.50  12.0   WSW   48.1   51.7   47.9   61.0  30.224  0.00  0.00   715    10.25    721     0.0  0.00   0.0   0.091   0.000   69.5    46   47.8   67.6   8.65  .0749    0.000   213    5    100.0   10 
 3/23/19  2:50p   51.8   52.1   51.8    80   45.8   8.0    SW   1.33  12.0   WSW   48.7   51.6   48.5   62.3  30.225  0.00  0.00   710    10.18    737     0.0  0.00   0.0   0.092   0.000   69.6    46   47.9   67.6   8.65  .0749    0.000   212    5    100.0   10 
 3/23/19  3:00p   52.0   52.0   51.6    81   46.3   9.0    SW   1.50  12.0   WSW   48.2   51.8   48.0   61.4  30.225  0.00  0.00   695     9.96    710     0.0  0.00   0.0   0.090   0.000   69.7    46   48.0   67.7   8.65  .0749    0.014   211    5    100.0   10 
 3/23/19  3:10p   52.0   52.3   52.0    80   46.0   8.0    SW   1.33  12.0   WSW   48.9   51.8   48.7   63.0  30.226  0.00  0.00   690     9.89    703     0.0  0.00   0.0   0.090   0.000   69.8    46   48.1   67.8   8.65  .0749    0.000   211    5    100.0   10 
 3/23/19  3:20p   52.1   52.1   51.8    81   46.4   8.0    SW   1.33  11.0   WSW   49.0   51.9   48.8   64.2  30.228  0.00  0.00   708    10.15    715     0.0  0.00   0.0   0.090   0.000   69.9    46   48.2   67.8   8.65  .0749    0.000   211    5    100.0   10 
 3/23/19  3:30p   52.1   52.2   51.9    80   46.1   7.0    SW   1.17  11.0   WSW   49.7   51.9   49.5   61.2  30.233  0.00  0.00   534     7.65    714     0.0  0.00   0.0   0.090   0.000   70.0    46   48.3   67.9   8.65  .0749    0.000   214    5    100.0   10 
 3/23/19  3:40p   52.4   52.4   52.1    80   46.4   7.0   WSW   1.17  10.0   WSW   50.1   52.2   49.9   58.7  30.230  0.00  0.00   402     5.76    547     0.0  0.00   0.0   0.087   0.000   70.1    46   48.4   68.0   8.65  .0748    0.000   208    5    100.0   10 
 3/23/19  3:50p   52.5   52.8   52.4    79   46.2   6.0    SW   1.00   9.0   WSW   50.6   52.2   50.3   67.6  30.229  0.00  0.00   665     9.53    680     0.0  0.00   0.0   0.087   0.000   70.1    46   48.4   68.0   8.65  .0748    0.000   213    5    100.0   10 
 3/23/19  4:00p   52.3   52.5   52.1    80   46.3   6.0    SW   1.00   9.0   WSW   50.4   52.1   50.2   58.3  30.229  0.00  0.00   320     4.59    380     0.0  0.00   0.0   0.088   0.000   70.2    46   48.4   68.2   8.65  .0748    0.012   214    5    100.0   10 
 3/23/19  4:10p   52.8   52.8   52.3    79   46.5   6.0   WSW   1.00  10.0   WSW   51.0   52.5   50.7   67.8  30.231  0.00  0.00   608     8.72    670     0.0  0.00   0.0   0.085   0.000   70.2    46   48.4   68.2   8.65  .0748    0.000   212    5    100.0   10 
 3/23/19  4:20p   52.6   52.9   52.6    78   45.9   5.0   WSW   0.83   8.0   WSW   51.3   52.3   51.0   66.9  30.230  0.00  0.00   549     7.87    564     0.0  0.00   0.0   0.086   0.000   70.3    46   48.5   68.3   8.64  .0748    0.000   211    5    100.0   10 
 3/23/19  4:30p   53.1   53.1   52.6    78   46.4   5.0   WSW   0.83   9.0   WSW   51.8   52.7   51.4   67.6  30.231  0.00  0.00   534     7.65    555     0.0  0.00   0.0   0.083   0.000   70.4    46   48.6   68.4   8.64  .0748    0.000   212    5    100.0   10 
 3/23/19  4:40p   52.6   53.3   52.6    77   45.6   5.0   WSW   0.83   8.0   WSW   51.3   52.2   50.9   63.2  30.234  0.00  0.00   412     5.91    580     0.0  0.00   0.0   0.086   0.000   70.5    46   48.7   68.6   8.64  .0748    0.000   213    5    100.0   10 
 3/23/19  4:50p   52.4   52.8   52.4    77   45.4   5.0   WSW   0.83   9.0     W   51.0   52.0   50.6   59.8  30.234  0.00  0.00   317     4.54    589     0.0  0.00   0.0   0.087   0.000   70.6    46   48.8   68.7   8.64  .0748    0.000   211    5    100.0   10 
 3/23/19  5:00p   52.3   52.4   52.2    77   45.3   5.0     W   0.83   7.0     W   50.9   52.0   50.6   61.8  30.231  0.00  0.00   356     5.10    476     0.0  0.00   0.0   0.088   0.000   70.6    46   48.8   68.7   8.64  .0747    0.010   213    5    100.0   10 
 3/23/19  5:10p   52.5   52.6   52.3    78   45.8   5.0     W   0.83   8.0     W   51.2   52.2   50.9   66.3  30.229  0.00  0.00   440     6.31    454     0.0  0.00   0.0   0.087   0.000   70.7    46   48.9   68.8   8.64  .0747    0.000   213    5    100.0   10 
 3/23/19  5:20p   52.0   52.5   52.0    77   45.0   5.0     W   0.83   7.0   WNW   50.6   51.7   50.3   64.3  30.229  0.00  0.00   393     5.63    413     0.0  0.00   0.0   0.090   0.000   70.8    46   49.0   68.9   8.63  .0747    0.000   212    5    100.0   10 
 3/23/19  5:30p   52.1   52.1   51.9    77   45.1   4.0     W   0.67   7.0     W   51.3   51.8   51.0   63.9  30.229  0.00  0.00   353     5.06    369     0.0  0.00   0.0   0.090   0.000   70.9    46   49.1   69.1   8.63  .0747    0.000   212    5    100.0   10 
 3/23/19  5:40p   52.0   52.3   52.0    77   45.0   4.0     W   0.67   7.0     W   51.2   51.7   50.9   54.4  30.233  0.00  0.00   319     4.57    336     0.0  0.00   0.0   0.090   0.000   71.0    46   49.2   69.2   8.63  .0747    0.000   211    5    100.0   10 
 3/23/19  5:50p   51.9   52.1   51.9    77   44.9   5.0     W   0.83   7.0     W   50.5   51.6   50.2   53.0  30.229  0.00  0.00   285     4.09    304     0.0  0.00   0.0   0.091   0.000   71.2    46   49.4   69.5   8.63  .0746    0.000   212    5    100.0   10 
 3/23/19  6:00p   52.1   52.1   51.9    77   45.1   4.0   WNW   0.67   7.0   WNW   51.3   51.8   51.0   53.1  30.228  0.00  0.00   251     3.60    265     0.0  0.00   0.0   0.090   0.000   71.3    46   49.4   69.7   8.62  .0746    0.007   213    5    100.0   10 
 3/23/19  6:10p   52.4   52.4   52.0    78   45.7   4.0   WNW   0.67   7.0   WNW   51.6   52.1   51.3   52.6  30.230  0.00  0.00   217     3.11    227     0.0  0.00   0.0   0.087   0.000   71.4    46   49.5   69.8   8.62  .0746    0.000   212    5    100.0   10 
 3/23/19  6:20p   52.1   52.4   52.1    78   45.4   4.0   WNW   0.67   7.0   WNW   51.3   51.8   51.0   51.7  30.231  0.00  0.00   189     2.71    204     0.0  0.00   0.0   0.090   0.000   71.4    46   49.5   69.8   8.62  .0746    0.000   212    5    100.0   10 
 3/23/19  6:30p   52.4   52.4   52.1    78   45.7   3.0   WNW   0.50   6.0   WNW   52.3   52.1   52.0   51.9  30.233  0.00  0.00   151     2.16    167     0.0  0.00   0.0   0.087   0.000   71.4    46   49.5   69.8   8.62  .0746    0.000   208    5    100.0   10 
 3/23/19  6:40p   52.7   52.7   52.4    78   46.0   2.0    NW   0.33   4.0    NW   52.7   52.3   52.3   51.5  30.236  0.00  0.00   116     1.66    130     0.0  0.00   0.0   0.085   0.000   71.5    46   49.6   69.9   8.62  .0746    0.000   209    5    100.0   10 
 3/23/19  6:50p   52.4   52.8   52.4    77   45.4   3.0    NW   0.50   5.0   WNW   52.3   52.0   51.9   50.3  30.240  0.00  0.00    81     1.16     97     0.0  0.00   0.0   0.087   0.000   71.6    46   49.7   70.1   8.62  .0746    0.000   210    5    100.0   10 
 3/23/19  7:00p   51.7   52.4   51.7    78   45.1   4.0   WNW   0.67   6.0   WNW   50.8   51.4   50.5   48.3  30.240  0.00  0.00    52     0.75     63     0.0  0.00   0.0   0.092   0.000   71.6    46   49.7   70.1   8.62  .0746    0.003   213    5    100.0   10 
 3/23/19  7:10p   51.6   51.7   51.4    79   45.3   3.0   WNW   0.50   7.0   WNW   51.5   51.4   51.3   48.7  30.241  0.00  0.00    31     0.44     39     0.0  0.00   0.0   0.093   0.000   71.5    46   49.6   69.9   8.62  .0746    0.000   213    5    100.0   10 
 3/23/19  7:20p   51.4   51.6   51.3    80   45.4   4.0     W   0.67   7.0   WNW   50.5   51.3   50.4   47.5  30.243  0.00  0.00    17     0.24     23     0.0  0.00   0.0   0.094   0.000   71.6    46   49.7   70.1   8.62  .0746    0.000   212    5    100.0   10 
 3/23/19  7:30p   51.0   51.3   51.0    80   45.0   3.0   WNW   0.50   6.0   WNW   50.8   50.9   50.7   47.6  30.242  0.00  0.00     8     0.11     11     0.0  0.00   0.0   0.097   0.000   71.5    46   49.6   69.9   8.62  .0746    0.000   211    5    100.0   10 
 3/23/19  7:40p   50.9   51.0   50.8    80   44.9   2.0   WNW   0.33   4.0   WNW   50.9   50.8   50.8   47.5  30.238  0.00  0.00     1     0.01      5     0.0  0.00   0.0   0.098   0.000   71.5    46   49.6   69.9   8.62  .0746    0.000   212    5    100.0   10 
 3/23/19  7:50p   50.7   50.9   50.7    80   44.8   1.0   WNW   0.17   4.0   WNW   50.7   50.6   50.6   47.3  30.236  0.00  0.00     0     0.00      0     0.0  0.00   0.0   0.099   0.000   71.5    46   49.6   69.9   8.62  .0746    0.000   211    5    100.0   10 
 3/23/19  8:00p   50.5   50.7   50.5    80   44.6   1.0   WNW   0.17   4.0   WNW   50.5   50.5   50.5   47.2  30.233  0.00  0.00     0     0.00      0     0.0  0.00   0.0   0.101   0.000   71.4    46   49.5   69.8   8.62  .0746    0.001   212    5    100.0   10 
 3/23/19  8:10p   49.5   50.4   49.5    80   43.6   0.0   WNW   0.00   2.0   WNW   49.5   49.5   49.5   46.1  30.231  0.00  0.00     0     0.00      0     0.0  0.00   0.0   0.108   0.000   71.4    46   49.5   69.8   8.62  .0746    0.000   211    5    100.0   10 
 3/23/19  8:20p   48.9   49.5   48.9    80   43.0   0.0   WNW   0.00   2.0   WNW   48.9   48.8   48.8   45.4  30.233  0.00  0.00     0     0.00      0     0.0  0.00   0.0   0.112   0.000   71.4    46   49.5   69.8   8.62  .0746    0.000   213    5    100.0   10 
 3/23/19  8:30p   48.4   48.9   48.3    80   42.5   0.0   ---   0.00   0.0   ---   48.4   48.3   48.3   44.9  30.236  0.00  0.00     0     0.00      0     0.0  0.00   0.0   0.115   0.000   71.3    46   49.4   69.7   8.62  .0746    0.000   212    5    100.0   10 
 3/23/19  8:40p   47.9   48.3   47.9    80   42.0   0.0   WNW   0.00   1.0   WNW   47.9   47.8   47.8   44.4  30.239  0.00  0.00     0     0.00      0     0.0  0.00   0.0   0.119   0.000   71.3    46   49.4   69.7   8.62  .0746    0.000   211    5    100.0   10 
 3/23/19  8:50p   47.6   47.8   47.5    81   42.1   0.0   WNW   0.00   3.0     S   47.6   47.5   47.5   44.1  30.242  0.00  0.00     0     0.00      0     0.0  0.00   0.0   0.121   0.000   71.3    46   49.4   69.7   8.62  .0747    0.000   212    5    100.0   10 
 3/23/19  9:00p   47.2   47.6   47.2    81   41.7   1.0    SE   0.17   3.0   SSE   47.2   47.1   47.1   43.6  30.246  0.00  0.00     0     0.00      0     0.0  0.00   0.0   0.124   0.000   71.2    46   49.4   69.5   8.63  .0747    0.001   211    5    100.0   10 
 3/23/19  9:10p   46.9   47.2   46.9    81   41.4   1.0   ESE   0.17   3.0    SE   46.9   46.7   46.7   43.2  30.246  0.00  0.00     0     0.00      0     0.0  0.00   0.0   0.126   0.000   71.2    46   49.4   69.5   8.63  .0747    0.000   213    5    100.0   10 
 3/23/19  9:20p   46.5   46.9   46.5    81   41.0   0.0   ESE   0.00   2.0   ESE   46.5   46.3   46.3   42.8  30.247  0.00  0.00     0     0.00      0     0.0  0.00   0.0   0.128   0.000   71.1    46   49.3   69.3   8.63  .0747    0.000   210    5    100.0   10 
 3/23/19  9:30p   46.0   46.5   46.0    81   40.5   1.0   ESE   0.17   2.0   ESE   46.0   45.8   45.8   42.3  30.249  0.00  0.00     0     0.00      0     0.0  0.00   0.0   0.132   0.000   71.1    46   49.3   69.3   8.63  .0747    0.000   212    5    100.0   10 
 3/23/19  9:40p   45.5   46.0   45.5    81   40.0   0.0   ESE   0.00   2.0   ESE   45.5   45.3   45.3   41.8  30.249  0.00  0.00     0     0.00      0     0.0  0.00   0.0   0.135   0.000   71.0    46   49.2   69.2   8.63  .0747    0.000   210    5    100.0   10 
 3/23/19  9:50p   45.3   45.5   45.2    82   40.1   1.0   ESE   0.17   2.0   ESE   45.3   45.2   45.2   41.7  30.250  0.00  0.00     0     0.00      0     0.0  0.00   0.0   0.137   0.000   70.9    46   49.1   69.1   8.63  .0747    0.000   211    5    100.0   10 
 3/23/19 10:00p   45.0   45.3   45.0    82   39.8   1.0   ESE   0.17   3.0   ESE   45.0   44.8   44.8   41.2  30.249  0.00  0.00     0     0.00      0     0.0  0.00   0.0   0.139   0.000   70.9    46   49.1   69.1   8.63  .0747    0.001   214    5    100.0   10 
 3/23/19 10:10p   44.7   45.0   44.7    82   39.5   1.0   ESE   0.17   2.0   ESE   44.7   44.5   44.5   40.9  30.248  0.00  0.00     0     0.00      0     0.0  0.00   0.0   0.141   0.000   70.8    45   48.4   68.8   8.45  .0748    0.000   210    5    100.0   10 
 3/23/19 10:20p   44.5   44.7   44.5    83   39.7   1.0   ESE   0.17   2.0   ESE   44.5   44.4   44.4   40.8  30.248  0.00  0.00     0     0.00      0     0.0  0.00   0.0   0.142   0.000   70.8    45   48.4   68.8   8.45  .0748    0.000   209    5    100.0   10 
 3/23/19 10:30p   44.7   44.7   44.5    83   39.9   1.0   ESE   0.17   2.0   ESE   44.7   44.6   44.6   41.0  30.246  0.00  0.00     0     0.00      0     0.0  0.00   0.0   0.141   0.000   70.7    45   48.3   68.7   8.45  .0748    0.000   213    5    100.0   10 
 3/23/19 10:40p   44.5   44.7   44.5    83   39.7   1.0   ESE   0.17   3.0   ESE   44.5   44.4   44.4   40.8  30.247  0.00  0.00     0     0.00      0     0.0  0.00   0.0   0.142   0.000   70.6    45   48.2   68.6   8.45  .0748    0.000   212    5    100.0   10 
 3/23/19 10:50p   44.4   44.5   44.4    83   39.6   1.0   ESE   0.17   2.0   ESE   44.4   44.3   44.3   40.7  30.248  0.00  0.00     0     0.00      0     0.0  0.00   0.0   0.143   0.000   70.6    45   48.2   68.6   8.45  .0748    0.000   211    5    100.0   10 
 3/23/19 11:00p   44.6   44.6   44.4    84   40.1   1.0   ESE   0.17   2.0   ESE   44.6   44.5   44.5   41.0  30.249  0.00  0.00     0     0.00      0     0.0  0.00   0.0   0.142   0.000   70.5    45   48.1   68.4   8.45  .0748    0.000   211    5    100.0   10 
 3/23/19 11:10p   44.8   44.8   44.6    84   40.3   0.0   ESE   0.00   3.0    SE   44.8   44.7   44.7   41.2  30.248  0.00  0.00     0     0.00      0     0.0  0.00   0.0   0.140   0.000   70.5    45   48.1   68.4   8.45  .0748    0.000   211    5    100.0   10 
 3/23/19 11:20p   44.7   44.8   44.7    84   40.2   3.0   ESE   0.50   6.0     E   43.7   44.6   43.6   40.1  30.248  0.00  0.00     0     0.00      0     0.0  0.00   0.0   0.141   0.000   70.4    45   48.0   68.3   8.45  .0748    0.000   212    5    100.0   10 
 3/23/19 11:30p   44.5   44.7   44.5    84   40.0   4.0   ESE   0.67   9.0    SE   42.5   44.4   42.4   38.8  30.246  0.00  0.00     0     0.00      0     0.0  0.00   0.0   0.142   0.000   70.3    45   47.9   68.2   8.45  .0749    0.000   212    5    100.0   10 
 3/23/19 11:40p   44.5   44.5   44.5    84   40.0   4.0   ESE   0.67  10.0     E   42.5   44.4   42.4   38.8  30.243  0.00  0.00     0     0.00      0     0.0  0.00   0.0   0.142   0.000   70.3    45   47.9   68.2   8.45  .0748    0.000   213    5    100.0   10 
 3/23/19 11:50p   44.3   44.5   44.3    84   39.8   5.0   ESE   0.83  11.0   ESE   41.5   44.2   41.4   37.8  30.238  0.00  0.00     0     0.00      0     0.0  0.00   0.0   0.144   0.000   70.2    45   47.9   68.1   8.45  .0749    0.000   213    5    100.0   10 
 3/24/19 12:00a   44.1   44.3   44.1    84   39.6   6.0   ESE   1.00  12.0    SE   40.6   44.0   40.5   36.9  30.238  0.00  0.00     0     0.00      0     0.0  0.00   0.0   0.145   0.000   70.1    45   47.8   67.9   8.45  .0749    0.001   212    5    100.0   10 
 3/24/19 12:10a   44.0   44.1   44.0    85   39.8   5.0   ESE   0.83  12.0     E   41.2   43.9   41.1   37.5  30.237  0.00  0.00     0     0.00      0     0.0  0.00   0.0   0.146   0.000   70.1    45   47.8   67.9   8.45  .0749    0.000   211    5    100.0   10 
 3/24/19 12:20a   44.1   44.1   44.0    85   39.9   6.0   ESE   1.00  13.0     E   40.6   44.0   40.5   36.9  30.234  0.00  0.00     0     0.00      0     0.0  0.00   0.0   0.145   0.000   70.0    45   47.7   67.8   8.45  .0749    0.000   211    5    100.0   10 
 3/24/19 12:30a   44.1   44.1   44.0    85   39.9   7.0   ESE   1.17  14.0     S   40.1   44.0   40.0   36.4  30.233  0.00  0.00     0     0.00      0     0.0  0.00   0.0   0.145   0.000   70.0    45   47.7   67.8   8.45  .0749    0.000   210    5    100.0   10 
 3/24/19 12:40a   44.1   44.1   44.0    85   39.9   7.0   ESE   1.17  13.0   ESE   40.1   44.0   40.0   36.4  30.232  0.00  0.00     0     0.00      0     0.0  0.00   0.0   0.145   0.000   69.9    45   47.6   67.7   8.45  .0749    0.000   212    5    100.0   10 
 3/24/19 12:50a   44.0   44.1   44.0    86   40.1   7.0   ESE   1.17  12.0     E   40.0   43.9   39.9   36.4  30.232  0.00  0.00     0     0.00      0     0.0  0.00   0.0   0.146   0.000   69.8    45   47.5   67.7   8.45  .0749    0.000   211    5    100.0   10 
 3/24/19  1:00a   44.0   44.0   44.0    86   40.1   7.0   ESE   1.17  12.0    SE   40.0   43.9   39.9   36.4  30.229  0.00  0.00     0     0.00      0     0.0  0.00   0.0   0.146   0.000   69.8    45   47.5   67.7   8.45  .0749    0.001   212    5    100.0   10 
 3/24/19  1:10a   43.8   44.0   43.8    86   39.9   7.0   ESE   1.17  13.0   ESE   39.8   43.7   39.7   36.1  30.229  0.00  0.00     0     0.00      0     0.0  0.00   0.0   0.147   0.000   69.7    45   47.4   67.6   8.46  .0749    0.000   213    5    100.0   10 
 3/24/19  1:20a   43.6   43.8   43.6    86   39.7   7.0   ESE   1.17  12.0   SSE   39.5   43.5   39.4   35.8  30.229  0.00  0.00     0     0.00      0     0.0  0.00   0.0   0.149   0.000   69.6    45   47.3   67.5   8.46  .0749    0.000   212    5    100.0   10 
 3/24/19  1:30a   43.5   43.7   43.5    86   39.6   6.0   ESE   1.00  12.0    SE   39.9   43.4   39.8   36.2  30.228  0.00  0.00     0     0.00      0     0.0  0.00   0.0   0.149   0.000   69.5    45   47.2   67.4   8.46  .0749    0.000   211    5    100.0   10 
 3/24/19  1:40a   43.3   43.5   43.3    86   39.4   5.0   ESE   0.83  11.0   ESE   40.4   43.2   40.3   36.7  30.228  0.00  0.00     0     0.00      0     0.0  0.00   0.0   0.151   0.000   69.5    45   47.2   67.4   8.46  .0749    0.000   211    5    100.0   10 
 3/24/19  1:50a   43.0   43.3   43.0    86   39.1   5.0   ESE   0.83  10.0   ESE   40.0   42.9   39.9   36.3  30.227  0.00  0.00     0     0.00      0     0.0  0.00   0.0   0.153   0.000   69.4    45   47.1   67.4   8.46  .0750    0.000   214    5    100.0   10 
 3/24/19  2:00a   42.8   43.0   42.8    86   38.9   5.0   ESE   0.83  11.0   ESE   39.8   42.7   39.7   36.1  30.228  0.00  0.00     0     0.00      0     0.0  0.00   0.0   0.154   0.000   69.3    45   47.0   67.3   8.46  .0750    0.001   211    5    100.0   10 
 3/24/19  2:10a   42.7   42.8   42.7    87   39.1   5.0   ESE   0.83  11.0    SE   39.6   42.6   39.5   35.9  30.226  0.00  0.00     0     0.00      0     0.0  0.00   0.0   0.155   0.000   69.2    45   46.9   67.2   8.47  .0750    0.000   212    5    100.0   10 
 3/24/19  2:20a   42.5   42.7   42.5    86   38.6   5.0   ESE   0.83  15.0   ESE   39.4   42.4   39.3   35.7  30.223  0.00  0.00     0     0.00      0     0.0  0.00   0.0   0.156   0.000   69.1    45   46.9   67.2   8.47  .0750    0.000   212    5    100.0   10 
 3/24/19  2:30a   42.4   42.5   42.4    86   38.5   4.0   ESE   0.67   9.0     E   40.1   42.3   40.0   36.4  30.221  0.00  0.00     0     0.00      0     0.0  0.00   0.0   0.157   0.000   69.1    45   46.9   67.2   8.47  .0750    0.000   212    5    100.0   10 
 3/24/19  2:40a   42.2   42.4   42.2    87   38.6   5.0   ESE   0.83  11.0    SE   39.0   42.1   38.9   35.3  30.217  0.00  0.00     0     0.00      0     0.0  0.00   0.0   0.158   0.000   69.0    45   46.8   67.1   8.47  .0750    0.000   212    5    100.0   10 
 3/24/19  2:50a   41.9   42.2   41.9    87   38.3   7.0   ESE   1.17  12.0     E   37.4   41.8   37.3   33.7  30.216  0.00  0.00     0     0.00      0     0.0  0.00   0.0   0.160   0.000   68.9    45   46.7   67.0   8.47  .0750    0.000   212    5    100.0   10 
 3/24/19  3:00a   41.8   41.9   41.8    87   38.2   7.0   ESE   1.17  13.0    SE   37.3   41.7   37.2   33.6  30.215  0.00  0.00     0     0.00      0     0.0  0.00   0.0   0.161   0.000   68.9    45   46.7   67.0   8.47  .0750    0.001   211    5    100.0   10 
 3/24/19  3:10a   41.6   41.8   41.6    87   38.0   8.0   ESE   1.33  15.0   ENE   36.5   41.5   36.4   33.0  30.213  0.00  0.00     0     0.00      0     0.0  0.00   0.0   0.163   0.000   68.7    45   46.5   66.8   8.48  .0750    0.000   213    5    100.0   10 
 3/24/19  3:20a   41.6   41.7   41.6    87   38.0   7.0    SE   1.17  15.0    SE   37.0   41.5   36.9   33.3  30.214  0.00  0.00     0     0.00      0     0.0  0.00   0.0   0.163   0.000   68.7    45   46.5   66.8   8.48  .0750    0.000   214    5    100.0   10 
 3/24/19  3:30a   41.6   41.6   41.6    87   38.0   7.0   ESE   1.17  16.0   SSE   37.0   41.5   36.9   33.3  30.212  0.00  0.00     0     0.00      0     0.0  0.00   0.0   0.163   0.000   68.6    45   46.4   66.7   8.48  .0751    0.000   211    5    100.0   10 
 3/24/19  3:40a   41.4   41.6   41.4    87   37.8   7.0   ESE   1.17  13.0    SE   36.8   41.3   36.7   33.1  30.212  0.00  0.00     0     0.00      0     0.0  0.00   0.0   0.164   0.000   68.5    45   46.3   66.6   8.48  .0751    0.000   212    5    100.0   10 
 3/24/19  3:50a   41.4   41.5   41.4    87   37.8   7.0   ESE   1.17  14.0   ESE   36.8   41.3   36.7   33.1  30.208  0.00  0.00     0     0.00      0     0.0  0.00   0.0   0.164   0.000   68.4    45   46.2   66.6   8.48  .0751    0.000   214    5    100.0   10 
 3/24/19  4:00a   41.4   41.4   41.3    88   38.1   7.0   ESE   1.17  17.0    SE   36.8   41.3   36.7   33.1  30.205  0.00  0.00     0     0.00      0     0.0  0.00   0.0   0.164   0.000   68.3    45   46.1   66.5   8.48  .0751    0.001   213    5    100.0   10 
 3/24/19  4:10a   41.2   41.4   41.2    88   37.9   7.0   ESE   1.17  14.0   ESE   36.5   41.1   36.4   32.8  30.210  0.00  0.00     0     0.00      0     0.0  0.00   0.0   0.165   0.000   68.3    44   45.5   66.4   8.35  .0751    0.000   212    5    100.0   10 
 3/24/19  4:20a   41.2   41.3   41.2    88   37.9   6.0   ESE   1.00  14.0   ESE   37.1   41.1   37.0   33.4  30.210  0.00  0.00     0     0.00      0     0.0  0.00   0.0   0.165   0.000   68.2    44   45.4   66.3   8.35  .0751    0.000   212    5    100.0   10 
 3/24/19  4:30a   41.1   41.2   41.1    88   37.8   7.0   ESE   1.17  13.0    SE   36.4   41.0   36.3   32.7  30.207  0.00  0.00     0     0.00      0     0.0  0.00   0.0   0.166   0.000   68.1    44   45.4   66.2   8.35  .0751    0.000   211    5    100.0   10 
 3/24/19  4:40a   40.9   41.1   40.9    87   37.3   6.0   ESE   1.00  13.0   ESE   36.8   40.7   36.6   33.0  30.206  0.00  0.00     0     0.00      0     0.0  0.00   0.0   0.167   0.000   68.0    44   45.3   66.1   8.35  .0752    0.000   209    5    100.0   10 
 3/24/19  4:50a   40.7   41.0   40.7    88   37.4   6.0   ESE   1.00  12.0    SE   36.6   40.6   36.5   32.9  30.205  0.00  0.00     0     0.00      0     0.0  0.00   0.0   0.169   0.000   68.0    44   45.3   66.1   8.35  .0752    0.000   213    5    100.0   10 
 3/24/19  5:00a   40.6   40.7   40.6    88   37.3   6.0   ESE   1.00  13.0   SSE   36.5   40.5   36.4   32.8  30.207  0.00  0.00     0     0.00      0     0.0  0.00   0.0   0.169   0.000   67.9    44   45.2   66.0   8.35  .0752    0.001   211    5    100.0   10 
 3/24/19  5:10a   40.5   40.6   40.5    88   37.2   7.0   ESE   1.17  14.0   ESE   35.7   40.4   35.6   32.0  30.206  0.00  0.00     0     0.00      0     0.0  0.00   0.0   0.170   0.000   67.8    44   45.1   65.9   8.35  .0752    0.000   213    5    100.0   10 
 3/24/19  5:20a   40.5   40.6   40.5    88   37.2   5.0   ESE   0.83  10.0    SE   37.1   40.4   37.0   33.4  30.206  0.00  0.00     0     0.00      0     0.0  0.00   0.0   0.170   0.000   67.7    44   45.0   65.7   8.35  .0752    0.000   213    5    100.0   10 
 3/24/19  5:30a   40.4   40.5   40.4    88   37.1   5.0   ESE   0.83  11.0   ENE   36.9   40.3   36.8   33.2  30.204  0.00  0.00     0     0.00      0     0.0  0.00   0.0   0.171   0.000   67.6    44   44.9   65.6   8.35  .0752    0.000   210    5    100.0   10 
 3/24/19  5:40a   40.4   40.4   40.4    88   37.1   6.0   ESE   1.00  13.0   ESE   36.2   40.3   36.1   32.5  30.206  0.00  0.00     0     0.00      0     0.0  0.00   0.0   0.171   0.000   67.6    44   44.9   65.6   8.35  .0752    0.000   211    5    100.0   10 
 3/24/19  5:50a   40.2   40.4   40.2    88   36.9   6.0   ESE   1.00  12.0   ESE   36.0   40.1   35.9   32.2  30.202  0.00  0.00     0     0.00      0     0.0  0.00   0.0   0.172   0.000   67.5    44   44.8   65.5   8.35  .0752    0.000   213    5    100.0   10 
 3/24/19  6:00a   40.1   40.2   40.1    88   36.8   6.0   ESE   1.00  12.0   ESE   35.9   40.0   35.8   32.1  30.201  0.00  0.00     0     0.00      0     0.0  0.00   0.0   0.173   0.000   67.4    44   44.7   65.4   8.35  .0753    0.001   210    5    100.0   10 
 3/24/19  6:10a   40.0   40.1   40.0    88   36.7   7.0   ESE   1.17  12.0   ESE   35.1   39.9   35.0   31.3  30.200  0.00  0.00     0     0.00      0     0.0  0.00   0.0   0.174   0.000   67.3    44   44.6   65.3   8.35  .0753    0.000   212    5    100.0   10 
 3/24/19  6:20a   40.0   40.0   39.9    88   36.7   8.0   ESE   1.33  13.0   ESE   34.6   39.9   34.5   31.0  30.199  0.00  0.00     0     0.00      0     0.0  0.00   0.0   0.174   0.000   67.2    44   44.5   65.2   8.35  .0753    0.000   212    5    100.0   10 
 3/24/19  6:30a   40.0   40.0   39.9    88   36.7   9.0   ESE   1.50  16.0   ESE   34.1   39.9   34.0   30.6  30.197  0.00  0.00     0     0.00      0     0.0  0.00   0.0   0.174   0.000   67.2    44   44.5   65.2   8.35  .0753    0.000   208    5    100.0   10 
 3/24/19  6:40a   40.1   40.1   40.0    88   36.8   9.0   ESE   1.50  16.0    SE   34.2   40.0   34.1   30.7  30.194  0.00  0.00     0     0.00      0     0.0  0.00   0.0   0.173   0.000   67.2    44   44.5   65.2   8.35  .0753    0.000   210    5    100.0   10 
 3/24/19  6:50a   40.1   40.1   40.0    88   36.8   8.0   ESE   1.33  16.0     E   34.7   40.0   34.6   31.1  30.191  0.00  0.00     0     0.00      0     0.0  0.00   0.0   0.173   0.000   67.3    44   44.6   65.3   8.35  .0752    0.000   212    5    100.0   10 
 3/24/19  7:00a   40.2   40.2   40.1    88   36.9   9.0     E   1.50  16.0    SE   34.3   40.1   34.2   30.8  30.188  0.00  0.00     0     0.00      0     0.0  0.00   0.0   0.172   0.000   67.2    44   44.5   65.2   8.35  .0753    0.001   212    5    100.0   10 
 3/24/19  7:10a   40.3   40.3   40.2    88   37.0   9.0     E   1.50  15.0   ESE   34.5   40.2   34.4   31.1  30.190  0.00  0.00     1     0.01      5     0.0  0.00   0.0   0.172   0.000   67.3    44   44.6   65.3   8.35  .0752    0.000   212    5    100.0   10 
 3/24/19  7:20a   40.4   40.4   40.3    88   37.1   9.0     E   1.50  17.0    SE   34.6   40.3   34.5   31.3  30.191  0.00  0.00     9     0.13     12     0.0  0.00   0.0   0.171   0.000   67.3    44   44.6   65.3   8.35  .0752    0.000   212    5    100.0   10 
 3/24/19  7:30a   40.4   40.4   40.3    88   37.1   9.0   ESE   1.50  14.0     E   34.6   40.3   34.5   31.5  30.191  0.00  0.00    16     0.23     19     0.0  0.00   0.0   0.171   0.000   67.3    44   44.6   65.3   8.35  .0752    0.000   207    5    100.0   10 
 3/24/19  7:40a   40.4   40.4   40.4    88   37.1   8.0     E   1.33  14.0   ESE   35.1   40.3   35.0   32.0  30.191  0.00  0.00    23     0.33     26     0.0  0.00   0.0   0.171   0.000   67.3    45   45.2   65.4   8.50  .0752    0.000   210    5    100.0   10 
 3/24/19  7:50a   40.6   40.6   40.4    88   37.3   8.0     E   1.33  14.0   ESE   35.3   40.5   35.2   32.4  30.193  0.00  0.00    29     0.42     32     0.0  0.00   0.0   0.169   0.000   67.3    45   45.2   65.4   8.50  .0752    0.000   213    5    100.0   10 
 3/24/19  8:00a   40.7   40.7   40.6    88   37.4   8.0     E   1.33  15.0   ESE   35.4   40.6   35.3   32.5  30.193  0.00  0.00    35     0.50     39     0.0  0.00   0.0   0.169   0.000   67.3    45   45.2   65.4   8.50  .0752    0.001   213    5    100.0   10 
 3/24/19  8:10a   40.7   40.8   40.7    88   37.4   9.0     E   1.50  14.0   ESE   34.9   40.6   34.8   32.3  30.195  0.00  0.00    42     0.60     44     0.0  0.00   0.0   0.169   0.000   67.4    45   45.3   65.5   8.50  .0752    0.000   212    5    100.0   10 
 3/24/19  8:20a   41.0   41.0   40.7    88   37.7   8.0     E   1.33  15.0   ESE   35.8   40.9   35.7   34.4  30.196  0.00  0.00   106     1.52    146     0.0  0.00   0.0   0.167   0.000   67.5    45   45.4   65.6   8.50  .0752    0.000   213    5    100.0   10 
 3/24/19  8:30a   41.3   41.3   41.0    88   38.0   8.0     E   1.33  14.0     E   36.2   41.2   36.1   36.1  30.194  0.00  0.00   166     2.38    181     0.0  0.00   0.0   0.165   0.000   67.5    45   45.4   65.6   8.50  .0752    0.000   212    5    100.0   10 
 3/24/19  8:40a   41.7   41.7   41.3    88   38.4   9.0     E   1.50  14.0    SE   36.1   41.6   36.0   40.7  30.191  0.00  0.00   194     2.78    206     0.0  0.00   0.0   0.162   0.000   67.5    45   45.4   65.6   8.50  .0752    0.000   213    5    100.0   10 
 3/24/19  8:50a   42.4   42.4   41.7    88   39.1   9.0     E   1.50  15.0    SE   36.9   42.3   36.8   42.2  30.193  0.00  0.00   221     3.17    232     0.0  0.00   0.0   0.157   0.000   67.6    45   45.5   65.8   8.50  .0752    0.000   213    5    100.0   10 
 3/24/19  9:00a   42.9   42.9   42.4    87   39.3   9.0     E   1.50  15.0     E   37.5   42.8   37.4   43.4  30.190  0.00  0.00   247     3.54    260     0.0  0.00   0.0   0.153   0.000   67.7    45   45.6   65.9   8.50  .0752    0.003   212    5    100.0   10 
 3/24/19  9:10a   43.5   43.5   42.9    87   39.9   8.0     E   1.33  15.0     E   38.8   43.5   38.8   46.1  30.193  0.00  0.00   283     4.06    299     0.0  0.00   0.0   0.149   0.000   67.7    45   45.6   65.9   8.50  .0752    0.000   214    5    100.0   10 
 3/24/19  9:20a   44.2   44.2   43.5    87   40.6   8.0     E   1.33  14.0     E   39.6   44.2   39.6   47.8  30.191  0.00  0.00   317     4.54    330     0.0  0.00   0.0   0.144   0.000   67.8    45   45.7   66.0   8.49  .0751    0.000   212    5    100.0   10 
 3/24/19  9:30a   44.9   44.9   44.2    87   41.3   7.0     E   1.17  15.0   ESE   41.1   44.9   41.1   50.5  30.190  0.00  0.00   350     5.02    369     0.0  0.00   0.0   0.140   0.000   67.9    45   45.8   66.1   8.49  .0751    0.000   212    5    100.0   10 
 3/24/19  9:40a   45.8   45.8   44.9    86   41.9   6.0     E   1.00  12.0   ESE   42.7   45.8   42.7   53.0  30.190  0.00  0.00   387     5.55    401     0.0  0.00   0.0   0.133   0.000   67.9    45   45.8   66.1   8.49  .0751    0.000   211    5    100.0   10 
 3/24/19  9:50a   46.9   46.9   45.8    86   42.9   7.0     E   1.17  13.0   ESE   43.5   46.9   43.5   54.0  30.193  0.00  0.00   415     5.95    427     0.0  0.00   0.0   0.126   0.000   68.0    45   45.9   66.2   8.49  .0751    0.000   211    5    100.0   10 
 3/24/19 10:00a   47.9   47.9   46.9    85   43.6   7.0     E   1.17  13.0    SE   44.7   47.9   44.7   55.6  30.188  0.00  0.00   443     6.35    455     0.0  0.00   0.0   0.119   0.000   68.0    45   45.9   66.2   8.49  .0751    0.007   209    5    100.0   10 
 3/24/19 10:10a   49.1   49.1   48.0    83   44.2   7.0     E   1.17  14.0     E   46.1   49.1   46.1   57.1  30.191  0.00  0.00   467     6.69    476     0.0  0.00   0.0   0.110   0.000   68.0    45   45.9   66.2   8.49  .0751    0.000   213    5    100.0   10 
 3/24/19 10:20a   50.1   50.1   49.1    82   44.8   7.0     E   1.17  13.0   ENE   47.3   50.1   47.3   58.5  30.191  0.00  0.00   493     7.07    506     0.0  0.00   0.0   0.103   0.000   68.0    45   45.9   66.2   8.49  .0751    0.000   213    5    100.0   10 
Email: AdamSPAM@StormwatchersRetreat.com (To send me email remove the word 'SPAM' from my email address.)